createdAt,value
2018-12-02T00:01:49.445Z,24.67
2018-12-02T00:04:23.713Z,24.60
2018-12-02T00:06:58.097Z,24.73
2018-12-02T00:09:34.194Z,23.57
2018-12-02T00:12:10.251Z,22.17
2018-12-02T00:14:44.406Z,23.73
2018-12-02T00:17:18.273Z,24.83
2018-12-02T00:19:52.674Z,24.17
2018-12-02T00:22:26.578Z,24.43
2018-12-02T00:25:01.245Z,26.43
2018-12-02T00:27:36.211Z,27.85
2018-12-02T00:30:20.600Z,28.43
2018-12-02T00:32:54.536Z,24.77
2018-12-02T00:40:29.927Z,28.30
2018-12-02T00:43:06.088Z,40.93
2018-12-02T00:45:40.996Z,35.30
2018-12-02T00:48:15.184Z,29.83
2018-12-02T00:50:51.446Z,26.67
2018-12-02T00:53:26.548Z,30.33
2018-12-02T00:56:04.367Z,36.07
2018-12-02T00:58:38.606Z,55.07
2018-12-02T01:01:12.836Z,35.98
2018-12-02T01:03:46.773Z,31.93
2018-12-02T01:06:22.121Z,33.03
2018-12-02T01:08:58.558Z,33.47
2018-12-02T01:11:33.854Z,29.37
2018-12-02T01:14:09.047Z,28.33
2018-12-02T01:16:43.223Z,27.17
2018-12-02T01:19:18.069Z,27.63
2018-12-02T01:21:53.322Z,26.90
2018-12-02T01:24:28.765Z,24.80
2018-12-02T01:27:03.894Z,20.10
2018-12-02T01:29:38.221Z,23.47
2018-12-02T01:32:12.402Z,22.07
2018-12-02T01:34:46.541Z,24.13
2018-12-02T01:37:22.526Z,26.97
2018-12-02T01:39:56.644Z,20.77
2018-12-02T01:42:31.828Z,19.10
2018-12-02T01:45:05.873Z,13.50
2018-12-02T01:47:40.080Z,12.30
2018-12-02T01:50:18.966Z,11.83
2018-12-02T01:52:54.157Z,12.70
2018-12-02T01:55:29.639Z,11.87
2018-12-02T01:58:03.977Z,11.23
2018-12-02T02:00:40.821Z,10.28
2018-12-02T02:03:14.999Z,9.60
2018-12-02T02:05:49.045Z,9.13
2018-12-02T02:08:23.097Z,11.45
2018-12-02T02:10:59.112Z,10.20
2018-12-02T02:13:33.396Z,9.47
2018-12-02T02:16:07.429Z,9.27
2018-12-02T02:18:43.462Z,9.58
2018-12-02T02:21:17.738Z,11.48
2018-12-02T02:23:51.918Z,12.82
2018-12-02T02:26:25.949Z,12.07
2018-12-02T02:29:01.533Z,12.30
2018-12-02T02:31:35.386Z,16.17
2018-12-02T02:34:09.501Z,16.47
2018-12-02T02:36:43.587Z,19.77
2018-12-02T02:39:17.960Z,17.48
2018-12-02T02:41:52.208Z,15.72
2018-12-02T02:44:27.115Z,17.42
2018-12-02T02:47:01.541Z,17.45
2018-12-02T02:49:35.597Z,20.63
2018-12-02T02:52:09.621Z,16.80
2018-12-02T02:54:43.333Z,18.30
2018-12-02T02:57:18.249Z,21.15
2018-12-02T02:59:52.034Z,17.40
2018-12-02T03:04:57.276Z,19.90
2018-12-02T03:07:31.652Z,20.55
2018-12-02T03:10:06.088Z,21.63
2018-12-02T03:12:40.825Z,19.90
2018-12-02T03:15:18.860Z,17.90
2018-12-02T03:17:52.552Z,18.43
2018-12-02T03:20:27.551Z,19.30
2018-12-02T03:23:02.017Z,19.27
2018-12-02T03:25:36.443Z,18.87
2018-12-02T03:28:12.278Z,16.37
2018-12-02T03:30:46.566Z,16.15
2018-12-02T03:33:20.869Z,17.02
2018-12-02T03:35:55.053Z,15.57
2018-12-02T03:38:29.101Z,14.93
2018-12-02T03:41:04.073Z,14.90
2018-12-02T03:43:38.194Z,13.75
2018-12-02T03:46:12.057Z,19.57
2018-12-02T03:48:46.085Z,28.77
2018-12-02T03:51:20.134Z,22.70
2018-12-02T03:53:54.368Z,20.40
2018-12-02T03:56:28.253Z,17.32
2018-12-02T03:59:02.248Z,21.65
2018-12-02T04:01:36.514Z,22.33
2018-12-02T04:04:10.557Z,19.83
2018-12-02T04:06:45.153Z,17.98
2018-12-02T04:09:19.111Z,19.35
2018-12-02T04:11:53.022Z,19.80
2018-12-02T04:14:28.303Z,18.33
2018-12-02T04:17:02.213Z,18.12
2018-12-02T04:19:38.180Z,18.60
2018-12-02T04:22:13.422Z,22.40
2018-12-02T04:24:49.345Z,19.77
2018-12-02T04:27:23.589Z,19.17
2018-12-02T04:30:00.601Z,20.55
2018-12-02T04:32:35.627Z,20.13
2018-12-02T04:35:13.717Z,22.75
2018-12-02T04:37:49.078Z,20.97
2018-12-02T04:40:25.231Z,24.33
2018-12-02T04:42:59.339Z,24.27
2018-12-02T04:45:33.554Z,24.67
2018-12-02T04:48:07.745Z,23.23
2018-12-02T04:50:42.549Z,24.87
2018-12-02T04:53:18.014Z,25.10
2018-12-02T04:55:53.287Z,24.00
2018-12-02T04:58:27.416Z,21.65
2018-12-02T05:01:01.974Z,21.00
2018-12-02T05:03:36.074Z,19.93
2018-12-02T05:06:10.574Z,19.50
2018-12-02T05:08:45.482Z,19.10
2018-12-02T05:11:19.510Z,19.32
2018-12-02T05:13:53.653Z,17.70
2018-12-02T05:16:29.701Z,16.80
2018-12-02T05:19:04.571Z,15.37
2018-12-02T05:21:39.137Z,19.13
2018-12-02T05:24:13.429Z,17.37
2018-12-02T05:26:47.480Z,16.90
2018-12-02T05:29:21.598Z,15.70
2018-12-02T05:31:56.005Z,16.80
2018-12-02T05:34:30.025Z,13.65
2018-12-02T05:37:03.503Z,15.83
2018-12-02T05:39:37.396Z,13.97
2018-12-02T05:42:15.451Z,12.73
2018-12-02T05:44:50.666Z,12.45
2018-12-02T05:47:26.200Z,13.60
2018-12-02T05:50:01.534Z,12.10
2018-12-02T05:52:35.989Z,12.95
2018-12-02T05:55:12.743Z,11.03
2018-12-02T05:57:47.750Z,9.28
2018-12-02T06:00:22.891Z,10.90
2018-12-02T06:02:57.142Z,11.05
2018-12-02T06:05:32.512Z,10.38
2018-12-02T06:08:06.307Z,9.93
2018-12-02T06:10:42.423Z,10.32
2018-12-02T06:13:17.173Z,8.95
2018-12-02T06:15:51.643Z,10.27
2018-12-02T06:18:27.852Z,8.23
2018-12-02T06:21:02.126Z,7.65
2018-12-02T06:23:36.146Z,8.43
2018-12-02T06:26:10.454Z,8.68
2018-12-02T06:28:44.361Z,8.85
2018-12-02T06:31:20.632Z,9.35
2018-12-02T06:34:11.417Z,9.10
2018-12-02T06:36:59.132Z,7.83
2018-12-02T06:39:33.975Z,10.68
2018-12-02T06:42:09.379Z,8.30
2018-12-02T06:44:47.090Z,8.17
2018-12-02T06:47:22.332Z,8.80
2018-12-02T06:49:57.189Z,7.12
2018-12-02T06:52:31.753Z,7.28
2018-12-02T06:55:14.511Z,7.30
2018-12-02T06:57:58.714Z,6.55
2018-12-02T07:01:19.691Z,6.60
2018-12-02T07:04:04.347Z,6.42
2018-12-02T07:06:38.531Z,6.83
2018-12-02T07:09:15.276Z,6.15
2018-12-02T07:11:52.142Z,5.78
2018-12-02T07:14:28.033Z,7.50
2018-12-02T07:17:05.038Z,6.58
2018-12-02T07:19:55.232Z,6.67
2018-12-02T07:22:37.050Z,7.72
2018-12-02T07:25:22.261Z,6.90
2018-12-02T07:27:57.187Z,7.42
2018-12-02T07:30:33.081Z,7.42
2018-12-02T07:33:08.120Z,7.12
2018-12-02T07:35:42.313Z,7.10
2018-12-02T07:38:23.356Z,7.37
2018-12-02T07:41:01.192Z,7.28
2018-12-02T07:43:36.129Z,7.20
2018-12-02T07:46:18.813Z,6.44
2018-12-02T07:48:53.682Z,7.05
2018-12-02T07:51:27.619Z,6.53
2018-12-02T07:54:03.689Z,7.03
2018-12-02T07:56:37.989Z,6.67
2018-12-02T07:59:12.267Z,8.07
2018-12-02T08:01:46.340Z,8.03
2018-12-02T08:04:22.510Z,8.00
2018-12-02T08:06:58.723Z,8.18
2018-12-02T08:09:34.326Z,7.70
2018-12-02T08:12:09.674Z,7.55
2018-12-02T08:14:44.667Z,7.63
2018-12-02T08:17:20.984Z,8.10
2018-12-02T08:19:56.591Z,9.58
2018-12-02T08:22:31.507Z,9.65
2018-12-02T08:25:05.190Z,9.80
2018-12-02T08:27:39.914Z,8.50
2018-12-02T08:30:16.415Z,8.65
2018-12-02T08:32:50.476Z,8.27
2018-12-02T08:35:25.702Z,8.10
2018-12-02T08:38:03.208Z,7.60
2018-12-02T08:40:37.406Z,8.55
2018-12-02T08:43:16.777Z,8.00
2018-12-02T08:45:50.669Z,7.42
2018-12-02T08:48:25.317Z,7.53
2018-12-02T08:51:04.401Z,8.23
2018-12-02T08:53:39.672Z,8.00
2018-12-02T08:56:13.927Z,7.58
2018-12-02T08:58:47.762Z,8.10
2018-12-02T09:01:22.029Z,7.50
2018-12-02T09:03:57.138Z,7.55
2018-12-02T09:06:32.727Z,7.45
2018-12-02T09:09:07.685Z,7.80
2018-12-02T09:11:42.048Z,6.95
2018-12-02T09:14:16.274Z,7.20
2018-12-02T09:16:51.796Z,6.95
2018-12-02T09:19:26.644Z,7.28
2018-12-02T09:22:02.019Z,6.97
2018-12-02T09:24:35.858Z,7.28
2018-12-02T09:27:09.782Z,7.92
2018-12-02T09:29:44.339Z,7.30
2018-12-02T09:32:19.538Z,6.90
2018-12-02T09:34:53.564Z,7.47
2018-12-02T09:37:27.966Z,6.60
2018-12-02T09:40:03.158Z,6.30
2018-12-02T09:42:38.408Z,6.67
2018-12-02T09:47:58.322Z,6.08
2018-12-02T09:50:32.339Z,6.80
2018-12-02T09:53:08.852Z,6.57
2018-12-02T09:55:46.780Z,7.53
2018-12-02T09:58:27.522Z,7.30
2018-12-02T10:01:04.239Z,6.87
2018-12-02T10:03:38.223Z,6.10
2018-12-02T10:06:13.862Z,6.60
2018-12-02T10:08:53.687Z,6.67
2018-12-02T10:11:32.648Z,6.93
2018-12-02T10:14:08.219Z,6.45
2018-12-02T10:16:42.292Z,7.23
2018-12-02T10:19:16.139Z,7.03
2018-12-02T10:21:51.062Z,7.22
2018-12-02T10:24:26.361Z,8.48
2018-12-02T10:27:00.354Z,8.68
2018-12-02T10:29:34.247Z,8.70
2018-12-02T10:32:12.307Z,9.28
2018-12-02T10:34:42.445Z,9.80
2018-12-02T10:37:16.732Z,9.83
2018-12-02T10:39:51.184Z,9.77
2018-12-02T10:42:25.014Z,8.78
2018-12-02T10:44:58.828Z,9.20
2018-12-02T10:47:32.927Z,10.03
2018-12-02T10:50:09.402Z,9.63
2018-12-02T10:52:45.436Z,9.20
2018-12-02T10:55:24.530Z,9.48
2018-12-02T10:57:59.214Z,9.60
2018-12-02T11:00:37.988Z,9.37
2018-12-02T11:03:11.928Z,10.38
2018-12-02T11:05:46.108Z,23.60
2018-12-02T11:08:20.641Z,37.97
2018-12-02T11:10:54.879Z,30.65
2018-12-02T11:13:31.329Z,25.20
2018-12-02T11:16:05.238Z,18.35
2018-12-02T11:18:39.411Z,16.73
2018-12-02T11:21:13.556Z,24.90
2018-12-02T11:23:47.992Z,19.23
2018-12-02T11:26:22.887Z,16.53
2018-12-02T11:28:57.559Z,16.00
2018-12-02T11:31:31.677Z,15.80
2018-12-02T11:34:06.073Z,15.00
2018-12-02T11:36:39.971Z,13.37
2018-12-02T11:39:14.056Z,14.10
2018-12-02T11:41:48.229Z,14.03
2018-12-02T11:44:24.265Z,15.30
2018-12-02T11:46:58.434Z,13.47
2018-12-02T11:49:33.244Z,15.07
2018-12-02T11:52:08.991Z,19.83
2018-12-02T11:54:42.944Z,21.73
2018-12-02T11:57:17.338Z,18.87
2018-12-02T11:59:51.393Z,21.83
2018-12-02T12:02:25.503Z,24.47
2018-12-02T12:05:00.797Z,20.37
2018-12-02T12:07:35.429Z,16.37
2018-12-02T12:10:12.287Z,14.83
2018-12-02T12:12:46.245Z,14.83
2018-12-02T12:15:22.001Z,14.37
2018-12-02T12:17:58.307Z,13.90
2018-12-02T12:20:37.697Z,14.40
2018-12-02T12:23:15.888Z,15.85
2018-12-02T12:25:50.327Z,15.83
2018-12-02T12:28:25.106Z,16.00
2018-12-02T12:31:00.204Z,15.20
2018-12-02T12:33:34.316Z,14.50
2018-12-02T12:36:08.470Z,18.13
2018-12-02T12:38:42.641Z,19.20
2018-12-02T12:41:18.358Z,18.50
2018-12-02T12:43:55.708Z,15.37
2018-12-02T12:46:30.679Z,15.43
2018-12-02T12:49:05.020Z,16.27
2018-12-02T12:51:40.466Z,16.40
2018-12-02T12:54:14.872Z,14.90
2018-12-02T12:56:49.169Z,12.70
2018-12-02T12:59:23.484Z,12.07
2018-12-02T13:01:57.520Z,11.43
2018-12-02T13:04:31.543Z,9.70
2018-12-02T13:07:05.620Z,9.17
2018-12-02T13:09:39.696Z,9.80
2018-12-02T13:12:14.063Z,8.13
2018-12-02T13:14:48.001Z,7.63
2018-12-02T13:17:23.500Z,7.60
2018-12-02T13:19:58.199Z,7.27
2018-12-02T13:22:32.371Z,7.20
2018-12-02T13:25:06.656Z,11.30
2018-12-02T13:27:41.457Z,9.43
2018-12-02T13:30:19.944Z,10.90
2018-12-02T13:32:56.606Z,9.83
2018-12-02T13:35:30.523Z,9.90
2018-12-02T13:38:06.995Z,9.33
2018-12-02T13:40:41.708Z,12.57
2018-12-02T13:43:18.561Z,9.53
2018-12-02T13:45:53.689Z,11.57
2018-12-02T13:48:28.017Z,12.90
2018-12-02T13:51:02.565Z,13.93
2018-12-02T13:53:40.627Z,21.87
2018-12-02T13:56:14.177Z,14.05
2018-12-02T13:58:50.363Z,18.37
2018-12-02T14:01:24.734Z,10.27
2018-12-02T14:03:58.992Z,8.57
2018-12-02T14:06:35.572Z,8.53
2018-12-02T14:09:10.672Z,7.50
2018-12-02T14:11:45.355Z,8.57
2018-12-02T14:14:19.484Z,10.13
2018-12-02T14:17:00.390Z,12.93
2018-12-02T14:19:35.896Z,13.10
2018-12-02T14:22:11.444Z,14.17
2018-12-02T14:24:45.617Z,14.07
2018-12-02T14:27:19.873Z,15.90
2018-12-02T14:29:56.978Z,15.57
2018-12-02T14:32:39.924Z,16.87
2018-12-02T14:35:15.796Z,16.97
2018-12-02T14:37:51.990Z,17.13
2018-12-02T14:40:31.872Z,18.02
2018-12-02T14:43:09.428Z,18.77
2018-12-02T14:45:48.070Z,18.37
2018-12-02T14:48:23.713Z,17.60
2018-12-02T14:51:01.519Z,18.17
2018-12-02T14:53:50.812Z,19.20
2018-12-02T14:56:30.611Z,17.67
2018-12-02T14:59:14.854Z,17.00
2018-12-02T15:01:54.047Z,16.90
2018-12-02T15:04:29.731Z,16.50
2018-12-02T15:07:09.956Z,15.37
2018-12-02T15:09:49.350Z,15.47
2018-12-02T15:12:27.052Z,15.13
2018-12-02T15:15:04.478Z,15.37
2018-12-02T15:17:42.113Z,18.47
2018-12-02T15:20:21.561Z,18.53
2018-12-02T15:22:58.608Z,16.43
2018-12-02T15:25:36.604Z,18.20
2018-12-02T15:28:13.629Z,16.93
2018-12-02T15:30:49.292Z,16.03
2018-12-02T15:33:29.609Z,14.25
2018-12-02T15:36:08.503Z,13.60
2018-12-02T15:38:42.468Z,13.07
2018-12-02T15:41:18.161Z,13.20
2018-12-02T15:43:53.496Z,13.77
2018-12-02T15:46:28.622Z,13.87
2018-12-02T15:49:02.633Z,14.17
2018-12-02T15:51:36.526Z,13.13
2018-12-02T15:54:16.630Z,13.33
2018-12-02T15:56:52.156Z,12.90
2018-12-02T15:59:34.095Z,12.67
2018-12-02T16:02:10.153Z,12.63
2018-12-02T16:04:47.016Z,12.40
2018-12-02T16:07:22.838Z,14.03
2018-12-02T16:09:58.642Z,11.63
2018-12-02T16:12:37.495Z,13.13
2018-12-02T16:15:20.379Z,12.83
2018-12-02T16:17:56.930Z,13.00
2018-12-02T16:20:35.049Z,11.60
2018-12-02T16:23:15.377Z,11.07
2018-12-02T16:25:53.008Z,11.40
2018-12-02T16:28:33.514Z,11.80
2018-12-02T16:31:12.193Z,12.07
2018-12-02T16:33:54.749Z,11.93
2018-12-02T16:36:43.526Z,11.90
2018-12-02T16:39:23.814Z,11.67
2018-12-02T16:42:00.457Z,12.83
2018-12-02T16:44:39.733Z,12.27
2018-12-02T16:47:16.936Z,14.07
2018-12-02T16:49:53.078Z,11.67
2018-12-02T16:52:33.479Z,11.88
2018-12-02T16:55:09.995Z,12.10
2018-12-02T16:57:46.481Z,11.10
2018-12-02T17:03:26.516Z,11.97
2018-12-02T17:06:01.237Z,12.73
2018-12-02T17:08:47.706Z,12.53
2018-12-02T17:11:23.358Z,14.40
2018-12-02T17:14:05.847Z,12.90
2018-12-02T17:16:42.204Z,12.90
2018-12-02T17:19:24.488Z,14.00
2018-12-02T17:22:03.808Z,13.47
2018-12-02T17:24:41.890Z,15.10
2018-12-02T17:27:19.159Z,14.03
2018-12-02T17:30:07.029Z,14.13
2018-12-02T17:32:50.257Z,13.43
2018-12-02T17:35:28.178Z,12.80
2018-12-02T17:38:03.099Z,12.10
2018-12-02T17:40:44.208Z,13.43
2018-12-02T17:43:22.519Z,12.53
2018-12-02T17:46:01.142Z,12.73
2018-12-02T17:48:43.658Z,13.03
2018-12-02T17:51:21.667Z,13.03
2018-12-02T17:53:55.839Z,13.57
2018-12-02T17:56:29.895Z,13.07
2018-12-02T17:59:04.420Z,12.53
2018-12-02T18:01:39.996Z,12.80
2018-12-02T18:04:14.056Z,11.90
2018-12-02T18:06:50.188Z,12.60
2018-12-02T18:09:25.834Z,13.03
2018-12-02T18:12:00.074Z,12.13
2018-12-02T18:14:34.487Z,13.13
2018-12-02T18:17:11.286Z,12.87
2018-12-02T18:19:54.719Z,12.10
2018-12-02T18:22:35.503Z,12.40
2018-12-02T18:25:17.178Z,12.77
2018-12-02T18:27:54.567Z,12.07
2018-12-02T18:30:39.177Z,14.03
2018-12-02T18:33:14.371Z,14.83
2018-12-02T18:35:57.467Z,15.20
2018-12-02T18:38:40.276Z,13.85
2018-12-02T18:41:24.706Z,13.00
2018-12-02T18:44:04.306Z,11.87
2018-12-02T18:46:45.416Z,12.23
2018-12-02T18:49:20.620Z,12.53
2018-12-02T18:51:54.876Z,12.67
2018-12-02T18:54:32.219Z,12.20
2018-12-02T18:57:12.818Z,12.30
2018-12-02T18:59:51.522Z,13.13
2018-12-02T19:02:29.866Z,14.27
2018-12-02T19:05:10.282Z,13.37
2018-12-02T19:07:51.449Z,14.40
2018-12-02T19:10:32.896Z,13.03
2018-12-02T19:13:10.874Z,11.93
2018-12-02T19:15:50.296Z,12.10
2018-12-02T19:18:33.049Z,11.10
2018-12-02T19:21:11.690Z,11.83
2018-12-02T19:23:47.609Z,11.50
2018-12-02T19:26:27.637Z,12.80
2018-12-02T19:29:05.723Z,12.37
2018-12-02T19:31:43.633Z,12.10
2018-12-02T19:34:20.371Z,12.03
2018-12-02T19:37:01.759Z,12.70
2018-12-02T19:39:43.626Z,10.57
2018-12-02T19:42:21.437Z,11.50
2018-12-02T19:44:57.994Z,11.40
2018-12-02T19:50:22.904Z,11.07
2018-12-02T19:53:03.432Z,10.73
2018-12-02T19:55:41.128Z,12.27
2018-12-02T19:58:23.011Z,10.57
2018-12-02T20:01:06.258Z,11.63
2018-12-02T20:03:46.644Z,10.07
2018-12-02T20:06:27.043Z,10.23
2018-12-02T20:09:12.042Z,10.93
2018-12-02T20:11:54.463Z,11.10
2018-12-02T20:14:33.533Z,10.63
2018-12-02T20:17:15.975Z,11.30
2018-12-02T20:21:02.218Z,10.73
2018-12-02T20:23:44.486Z,10.37
2018-12-02T20:26:23.947Z,11.00
2018-12-02T20:29:06.530Z,11.06
2018-12-02T20:31:43.962Z,11.03
2018-12-02T20:34:23.955Z,10.83
2018-12-02T20:37:01.645Z,11.57
2018-12-02T20:39:42.472Z,11.73
2018-12-02T20:42:17.669Z,10.67
2018-12-02T20:44:53.430Z,11.33
2018-12-02T20:47:30.085Z,12.23
2018-12-02T20:50:11.542Z,11.43
2018-12-02T20:52:50.859Z,11.00
2018-12-02T20:55:33.354Z,11.23
2018-12-02T20:58:11.868Z,10.82
2018-12-02T21:00:47.829Z,11.23
2018-12-02T21:03:31.857Z,11.47
2018-12-02T21:06:23.533Z,11.17
2018-12-02T21:08:59.296Z,11.20
2018-12-02T21:11:40.477Z,11.40
2018-12-02T21:17:14.031Z,10.35
2018-12-02T21:19:49.879Z,10.07
2018-12-02T21:22:27.068Z,10.03
2018-12-02T21:25:05.799Z,10.33
2018-12-02T21:27:46.821Z,10.07
2018-12-02T21:30:31.616Z,10.67
2018-12-02T21:33:10.497Z,10.17
2018-12-02T21:35:46.203Z,9.90
2018-12-02T21:38:23.591Z,10.43
2018-12-02T21:40:59.744Z,10.37
2018-12-02T21:43:39.419Z,10.73
2018-12-02T21:46:16.719Z,10.83
2018-12-02T21:48:50.558Z,10.17
2018-12-02T21:51:30.823Z,9.93
2018-12-02T21:54:07.414Z,10.08
2018-12-02T21:56:43.384Z,10.70
2018-12-02T21:59:18.291Z,10.57
2018-12-02T22:01:52.639Z,10.90
2018-12-02T22:04:32.067Z,10.03
2018-12-02T22:07:07.986Z,9.80
2018-12-02T22:09:43.839Z,10.53
2018-12-02T22:12:17.940Z,11.20
2018-12-02T22:14:54.379Z,10.50
2018-12-02T22:17:28.994Z,10.60
2018-12-02T22:20:07.201Z,10.33
2018-12-02T22:22:41.615Z,10.90
2018-12-02T22:25:19.324Z,11.17
2018-12-02T22:27:58.090Z,12.77
2018-12-02T22:30:35.279Z,12.37
2018-12-02T22:33:13.117Z,11.53
2018-12-02T22:35:49.957Z,11.80
2018-12-02T22:38:28.195Z,11.33
2018-12-02T22:41:05.789Z,10.73
2018-12-02T22:43:39.901Z,10.27
2018-12-02T22:46:17.116Z,9.87
2018-12-02T22:48:51.073Z,10.00
2018-12-02T22:51:31.332Z,10.33
2018-12-02T22:54:06.494Z,10.03
2018-12-02T22:56:40.830Z,10.83
2018-12-02T22:59:18.848Z,11.73
2018-12-02T23:01:57.949Z,11.50
2018-12-02T23:04:33.179Z,11.60
2018-12-02T23:07:10.882Z,11.70
2018-12-02T23:09:50.046Z,11.40
2018-12-02T23:12:24.137Z,10.20
2018-12-02T23:14:59.953Z,10.47
2018-12-02T23:17:34.552Z,10.40
2018-12-02T23:20:11.474Z,11.53
2018-12-02T23:22:47.806Z,10.53
2018-12-02T23:25:25.040Z,11.43
2018-12-02T23:28:00.636Z,10.53
2018-12-02T23:30:36.390Z,10.00
2018-12-02T23:33:18.672Z,10.00
2018-12-02T23:35:52.658Z,10.20
2018-12-02T23:38:27.224Z,11.60
2018-12-02T23:41:03.948Z,11.03
2018-12-02T23:43:38.430Z,10.30
2018-12-02T23:46:13.857Z,11.13
2018-12-02T23:48:49.974Z,11.07
2018-12-02T23:51:24.384Z,11.47
2018-12-02T23:54:00.289Z,11.30
2018-12-02T23:56:34.534Z,10.73
2018-12-02T23:59:08.708Z,11.23
